Pagina principale
METAR-TAF:

METAR-TAF

Aeroporti :

Trieste, Italia

latitudine: 45-39N, longitudine: 013-45E, altezza: 8 m

Osservazione

Il bollettino è stato emesso 18 minuti fa, alle 12:55 UTC
Vento calmo
Temperature 7°C
Umidità 87%
Pressione 1008 hPa
Visibilità 10 km o più
Poco nuvoloso ad un'altezza di 800 ft
Nubi sparse ad un'altezza di 2000 ft

METAR: LIVT 161255Z 00000KT 9999 FEW008 SCT020 07/05 Q1008 RMK OVC QUK 0 QUL 0 VIS MAR 10 KM VIS MIN 9999

Ora: 14:13 (13:13 UTC)


TAF: mancante

Osservazioni e previsioni meteorologiche di più di 4000 aeroporti (messaggi METAR e TAF).

Le stazioni disponibili sono rappresentate dai dischi gialli e rossi sulla carta.

Puntare il mouse per vedere il nome della stazione.

Clicca sopra per visualizzare le osservazioni e previsioni meteorologiche.

Per cambiare la mappa : fare clic sui pulsanti verdi con una croce nera per ingrandire, il pulsante verde con un trattino per diminuire, o sulla freccia verde per le mappe adiacenti.


METAR-TAF: